Bayliss, California
Current Conditions -  °F | °C
As of 11:15 PM on Thursday 30 Oct 2014 (Local Time) from KCIC Reporting Station
Clear Clear  
Wind Chill: 68°   Ceiling: Unl
Heat Index: 68°   Visibility: 10mi
Dew Point: 41°   Wind: 20mph
Humidity: 37%   Direction: 150°SSE
Pressure: 29.82"   Gusts: NA
Location:  39.6048°N, 122.032°W
Report Text: KCIC 310615Z AUTO 15017KT 10SM CLR 20/05 A2982 RMK AO1
Loading
Personal Weather Stations






























Interactive Weather Map
Tropical Storm Tracking
New forecast layout! Learn more

10-Day Weather Forecast

Advertisements
Track Severe Weather on mobile